Aeroporto :
LOGIN :

Iscrizione | Disclaimer

   EN    FR    IT 

 










Sommario :    VFR   VFR Marginale   IFR   IFR Intensivo   IFR Molto Intensivo
Visibilità : 
Base nubi : 
>= 8 km
>= 3000ft
5 / 8 km
1000 / 3000 ft
1500m / 5 km
500 / 1000 ft
800 / 1500m
200 / 500 ft
< 800m
< 200 ft
Simboli :   Temporali  Nebbia  Neve Forte  Precipitazioni Forti  Vento > 20 kt
SIGMETs :   Varie  Temporali  Ghiacco  Turbolenza  Onda orograficha  Ceneri Vulcaniche






- Altitudine del aeroporto : 239 ft
- Codice IATA : VRN


LIPX - Villafranca Int. Verona

ULTIMO METAR :
  • 251550Z VRB02KT 3000 BR BKN050 12/09 Q1006

METARs OBSOLETI :
  • 251520Z VRB02KT 3000 BR BKN050 12/09 Q1006
  • 251450Z 19003KT 160V230 4000 BR BKN040 12/08 Q1007
  • 251420Z 23003KT 200V270 4000 BR BKN040 12/08 Q1007
  • 251350Z 19003KT 130V240 4000 BR BKN040 12/08 Q1008
  • 251320Z 15003KT 110V200 4000 BR BKN040 12/08 Q1008

TAF TAF LIPX
Valido dal 25 a 15 ore il 26 a 00 ore UTC


251400Z 2515/2524 VRB05KT 3000 BR BKN050
TEMPO 2518/2521 RA



MetMap, La meteo Aeronautica in un colpo d'occhio ! - Copyright ORBIFLY Dicembre 2007 - Disclaimer

ORBIFLY MET'MAP TEAM :

Programmazione e sviluppo : Alexandra Zaïnal
Concezione : Baudouin d'Aumeries
Aiuto per la programmazione : Marc-Olivier Méhu
Supporto tecnico e logistico : Manuel Goepfert
Aiuto per la traduzione : Arnaldo La Scala

Contatto : metmap@orbifly.com




FONTI E CREDITI :

   NOAA